Time;durP1;ratioP1;P1;durP2;ratioP2;P2;SDS_P1;SDS_P2;PMS_P1;PMS_P2;Temp;Humidity;BMP_temperature;BMP_pressure;BME280_temperature;BME280_humidity;BME280_pressure;Samples;Min_cycle;Max_cycle;Signal;HPM_P1;HPM_P2
2023/01/11 00:01:28;;;;;;;2.63;1.42;;;9.20;99.90;;;;;;4827464;29;20134;-88
2023/01/11 00:03:56;;;;;;;4.78;2.35;;;9.30;99.90;;;;;;4779647;29;20061;-87
2023/01/11 00:06:26;;;;;;;4.75;2.20;;;9.30;99.90;;;;;;4793164;29;20413;-88
2023/01/11 00:08:55;;;;;;;3.30;2.30;;;9.30;99.90;;;;;;4829691;29;20049;-90
2023/01/11 00:11:24;;;;;;;4.53;2.00;;;9.40;99.90;;;;;;4823697;29;20144;-91
2023/01/11 00:13:59;;;;;;;3.22;2.10;;;9.40;99.90;;;;;;4818980;29;20050;-96
2023/01/11 00:16:26;;;;;;;2.70;1.50;;;9.40;99.90;;;;;;4811844;29;20078;-89
2023/01/11 00:18:54;;;;;;;3.60;2.15;;;9.40;99.90;;;;;;4819644;29;20058;-91
2023/01/11 00:21:21;;;;;;;3.75;1.95;;;9.50;99.90;;;;;;4799353;29;20055;-90
2023/01/11 00:23:49;;;;;;;4.75;2.45;;;9.50;99.90;;;;;;4794401;29;20096;-94
2023/01/11 00:26:21;;;;;;;4.00;2.00;;;9.60;99.90;;;;;;4791226;30;20059;-96
2023/01/11 00:28:51;;;;;;;;;;;9.60;99.90;;;;;;4776560;30;20465;-93
2023/01/11 00:31:25;;;;;;;3.88;1.90;;;9.60;99.90;;;;;;4776120;30;20456;-89
2023/01/11 00:33:53;;;;;;;3.80;2.38;;;9.60;99.90;;;;;;4807686;29;20066;-93
2023/01/11 00:36:21;;;;;;;4.45;2.22;;;9.60;99.90;;;;;;4793839;29;20051;-90
2023/01/11 00:38:54;;;;;;;3.50;2.10;;;9.60;99.90;;;;;;4808259;29;20131;-95
2023/01/11 00:49:42;;;;;;;5.93;2.08;;;9.70;99.90;;;;;;4796879;29;20063;-93
2023/01/11 00:52:10;;;;;;;5.45;2.17;;;9.70;99.90;;;;;;4794562;29;20052;-93
2023/01/11 00:54:38;;;;;;;5.78;1.98;;;9.80;99.90;;;;;;4790624;29;20055;-95
2023/01/11 00:57:06;;;;;;;7.28;2.28;;;9.80;99.90;;;;;;4775898;30;20051;-94
2023/01/11 00:59:34;;;;;;;3.92;1.80;;;9.80;99.90;;;;;;4790356;29;20098;-94
2023/01/11 01:02:02;;;;;;;5.28;2.10;;;9.80;99.90;;;;;;4775282;30;20055;-93
2023/01/11 01:04:30;;;;;;;3.20;1.73;;;9.80;99.90;;;;;;4790278;30;20089;-93
2023/01/11 01:06:57;;;;;;;4.82;2.15;;;9.90;99.90;;;;;;4790421;29;20063;-93
2023/01/11 01:09:25;;;;;;;3.83;1.63;;;9.90;99.90;;;;;;4792130;29;20051;-93
2023/01/11 01:11:55;;;;;;;3.33;1.92;;;9.90;99.90;;;;;;4786604;30;20052;-92
2023/01/11 01:14:24;;;;;;;2.78;1.83;;;9.90;99.90;;;;;;4789143;30;20056;-92
2023/01/11 01:17:00;;;;;;;3.45;1.65;;;9.90;99.90;;;;;;4804263;29;20427;-92
2023/01/11 01:19:29;;;;;;;4.60;2.63;;;9.90;99.90;;;;;;4794388;29;20073;-92
2023/01/11 01:21:58;;;;;;;3.55;2.00;;;9.90;99.90;;;;;;4790242;29;20055;-92
2023/01/11 01:24:29;;;;;;;3.70;2.67;;;10.00;99.90;;;;;;4778630;30;20099;-92
2023/01/11 01:26:58;;;;;;;3.92;2.20;;;10.00;99.90;;;;;;4804571;29;20051;-92
2023/01/11 01:29:28;;;;;;;2.92;1.80;;;10.00;99.90;;;;;;4784297;29;20047;-92
2023/01/11 01:31:56;;;;;;;3.17;1.80;;;10.00;99.90;;;;;;4797774;29;20477;-92
2023/01/11 01:34:26;;;;;;;3.33;1.67;;;10.00;99.90;;;;;;4798005;29;20897;-92
2023/01/11 01:36:55;;;;;;;4.47;1.55;;;10.00;99.90;;;;;;4801401;29;20074;-92
2023/01/11 01:39:24;;;;;;;3.25;1.60;;;10.00;99.90;;;;;;4789560;29;20055;-91
2023/01/11 01:41:52;;;;;;;3.13;1.85;;;10.00;99.90;;;;;;4797199;29;20490;-92
2023/01/11 01:44:50;;;;;;;3.13;1.83;;;10.00;99.90;;;;;;4793534;29;20059;-93
2023/01/11 01:47:31;;;;;;;2.65;1.40;;;10.10;99.90;;;;;;4812128;29;20092;-92
2023/01/11 01:50:01;;;;;;;3.28;1.30;;;10.10;99.90;;;;;;4788580;29;20061;-92
2023/01/11 01:52:31;;;;;;;3.67;1.40;;;10.10;99.90;;;;;;4803974;29;20079;-90
2023/01/11 01:55:01;;;;;;;2.30;1.40;;;10.10;99.90;;;;;;4804623;29;20052;-88
2023/01/11 01:57:34;;;;;;;3.75;1.45;;;10.10;99.90;;;;;;4790617;29;20052;-87
2023/01/11 02:00:05;;;;;;;2.67;1.42;;;10.20;99.90;;;;;;4788404;29;20053;-86
2023/01/11 02:02:35;;;;;;;2.92;1.30;;;10.20;99.90;;;;;;4775557;30;20065;-84
2023/01/11 02:05:04;;;;;;;2.88;1.15;;;10.20;99.90;;;;;;4796386;29;20080;-84
2023/01/11 02:07:34;;;;;;;2.38;1.20;;;10.20;99.90;;;;;;4806429;29;21303;-84
2023/01/11 02:10:14;;;;;;;2.13;1.10;;;10.30;99.90;;;;;;4802760;29;20495;-87
2023/01/11 02:12:50;;;;;;;2.47;1.30;;;10.30;99.90;;;;;;4802756;29;20400;-86
2023/01/11 02:15:20;;;;;;;1.83;1.00;;;10.30;99.90;;;;;;4807156;29;20130;-85
2023/01/11 02:17:47;;;;;;;1.63;0.82;;;10.30;99.90;;;;;;4790964;29;20056;-85
2023/01/11 02:20:25;;;;;;;1.65;0.90;;;10.30;99.90;;;;;;4772888;29;20047;-84
2023/01/11 02:23:11;;;;;;;1.95;0.95;;;10.30;99.90;;;;;;4800248;29;20055;-84
2023/01/11 02:25:59;;;;;;;1.05;0.50;;;10.30;99.90;;;;;;4805090;29;20562;-84
2023/01/11 02:28:56;;;;;;;1.88;0.60;;;10.30;99.90;;;;;;4811943;29;20047;-84
2023/01/11 02:31:40;;;;;;;2.08;0.57;;;10.30;99.90;;;;;;4802363;29;20449;-85
2023/01/11 02:35:02;;;;;;;1.40;0.70;;;10.40;99.90;;;;;;4808379;29;20177;-85
2023/01/11 02:37:45;;;;;;;1.20;0.73;;;10.40;99.90;;;;;;4754182;30;20091;-85
2023/01/11 02:40:34;;;;;;;2.08;1.10;;;10.40;99.90;;;;;;4802911;29;20487;-84
2023/01/11 02:46:12;;;;;;;1.85;1.10;;;10.40;99.90;;;;;;4796641;29;20105;-84
2023/01/11 02:48:45;;;;;;;1.65;0.88;;;10.40;99.90;;;;;;4791713;29;20058;-83
2023/01/11 02:51:25;;;;;;;1.35;0.80;;;10.40;99.90;;;;;;4801782;29;20067;-83
2023/01/11 02:54:00;;;;;;;1.85;0.80;;;10.50;99.90;;;;;;4774722;30;20048;-85
2023/01/11 02:56:33;;;;;;;2.70;0.70;;;10.50;99.90;;;;;;4788319;29;20075;-84
2023/01/11 02:59:01;;;;;;;1.10;0.70;;;10.50;99.90;;;;;;4788641;29;20131;-83
2023/01/11 03:01:28;;;;;;;3.35;1.42;;;10.50;99.90;;;;;;4804995;29;20506;-84
2023/01/11 03:03:57;;;;;;;2.30;1.00;;;10.50;99.90;;;;;;4796922;29;20058;-84
2023/01/11 03:06:32;;;;;;;1.35;0.70;;;10.50;99.90;;;;;;4796538;29;20100;-83
2023/01/11 03:09:25;;;;;;;1.50;0.80;;;10.50;99.90;;;;;;4804948;29;20513;-82
2023/01/11 03:15:40;;;;;;;1.20;0.60;;;10.50;99.90;;;;;;4805187;29;20057;-84
2023/01/11 03:18:45;;;;;;;1.17;0.57;;;10.60;99.90;;;;;;4790458;29;20149;-84
2023/01/11 03:21:36;;;;;;;1.48;0.80;;;10.60;99.90;;;;;;4802686;29;20051;-85
2023/01/11 03:24:18;;;;;;;1.85;0.98;;;10.60;99.90;;;;;;4803249;29;20059;-83
2023/01/11 03:26:55;;;;;;;2.90;1.20;;;10.60;99.90;;;;;;4816007;29;20057;-85
2023/01/11 03:29:41;;;;;;;2.25;0.80;;;10.70;99.90;;;;;;4807207;29;20051;-84
2023/01/11 03:32:16;;;;;;;2.53;1.40;;;10.70;99.90;;;;;;4805969;29;20051;-85
2023/01/11 03:35:10;;;;;;;2.13;1.02;;;10.70;99.90;;;;;;4795459;29;20055;-84
2023/01/11 03:37:46;;;;;;;1.63;1.10;;;10.70;99.90;;;;;;4788121;29;20082;-83
2023/01/11 03:40:31;;;;;;;1.67;1.00;;;10.70;99.90;;;;;;4800959;29;20051;-83
2023/01/11 03:43:10;;;;;;;2.92;1.02;;;10.80;99.90;;;;;;4796522;29;20034;-83
2023/01/11 03:46:03;;;;;;;2.17;1.20;;;10.80;99.90;;;;;;4797345;29;20066;-82
2023/01/11 03:48:43;;;;;;;1.50;0.80;;;10.80;99.90;;;;;;4804348;29;20087;-82
2023/01/11 03:51:14;;;;;;;2.30;1.20;;;10.80;99.90;;;;;;4792968;29;20601;-82
2023/01/11 03:53:45;;;;;;;2.63;1.20;;;10.80;99.90;;;;;;4776726;30;20449;-82
2023/01/11 03:56:17;;;;;;;1.77;1.00;;;10.80;99.90;;;;;;4785625;29;20050;-83
2023/01/11 03:58:44;;;;;;;1.52;1.05;;;10.80;99.90;;;;;;4794728;29;20399;-82
2023/01/11 04:01:12;;;;;;;1.15;0.60;;;10.80;99.90;;;;;;4809783;29;20054;-82
2023/01/11 04:03:39;;;;;;;1.80;0.98;;;10.80;99.90;;;;;;4794025;29;20096;-82
2023/01/11 04:06:09;;;;;;;2.63;0.70;;;10.80;99.90;;;;;;4812190;29;20104;-81
2023/01/11 04:08:39;;;;;;;1.27;0.70;;;10.90;99.90;;;;;;4789151;29;20097;-81
2023/01/11 04:11:06;;;;;;;1.13;0.60;;;10.90;99.90;;;;;;4787877;29;20143;-81
2023/01/11 04:13:33;;;;;;;1.60;0.80;;;10.90;99.90;;;;;;4804939;29;20137;-81
2023/01/11 04:16:00;;;;;;;1.63;0.80;;;10.90;99.90;;;;;;4782898;29;20051;-81
2023/01/11 04:18:27;;;;;;;1.38;0.77;;;11.00;99.90;;;;;;4808112;29;20051;-84
2023/01/11 04:20:54;;;;;;;1.40;0.80;;;11.00;99.90;;;;;;4803613;29;20506;-86
2023/01/11 04:23:21;;;;;;;1.60;0.80;;;11.00;99.90;;;;;;4789674;29;20114;-85
2023/01/11 04:25:48;;;;;;;1.50;0.70;;;11.00;99.90;;;;;;4798683;29;20115;-84
2023/01/11 04:28:15;;;;;;;0.90;0.57;;;11.00;99.90;;;;;;4808161;29;20154;-84
2023/01/11 04:30:43;;;;;;;1.88;0.82;;;11.00;99.90;;;;;;4789582;29;20111;-83
2023/01/11 04:33:12;;;;;;;1.58;0.90;;;11.00;99.90;;;;;;4800794;29;20392;-83
2023/01/11 04:35:43;;;;;;;1.90;0.90;;;11.10;99.90;;;;;;4790321;29;20104;-85
2023/01/11 04:38:13;;;;;;;1.02;0.63;;;11.10;99.90;;;;;;4805568;29;20043;-83
2023/01/11 04:40:40;;;;;;;2.20;0.90;;;11.10;99.90;;;;;;4789723;29;20486;-84
2023/01/11 04:43:07;;;;;;;1.33;0.77;;;11.10;99.90;;;;;;4788512;29;20047;-83
2023/01/11 04:45:35;;;;;;;2.10;0.75;;;11.10;99.90;;;;;;4773906;30;20058;-85
2023/01/11 04:48:02;;;;;;;2.35;0.88;;;11.20;99.90;;;;;;4804146;29;20100;-84
2023/01/11 04:50:29;;;;;;;2.10;1.20;;;11.10;99.90;;;;;;4776956;30;20511;-92
2023/01/11 04:52:58;;;;;;;4.72;1.50;;;11.10;99.90;;;;;;4796852;29;20052;-85
2023/01/11 04:55:25;;;;;;;2.40;1.20;;;11.20;99.90;;;;;;4784060;29;20051;-85
2023/01/11 04:57:55;;;;;;;2.63;1.83;;;11.20;99.90;;;;;;4775787;29;20055;-84
2023/01/11 05:00:25;;;;;;;3.67;2.30;;;11.20;99.90;;;;;;4804098;29;20059;-84
2023/01/11 05:02:57;;;;;;;3.33;1.60;;;11.20;99.90;;;;;;4777268;30;20052;-85
2023/01/11 05:05:24;;;;;;;;;;;11.20;99.90;;;;;;4789533;29;20104;-84
2023/01/11 05:07:51;;;;;;;3.75;2.00;;;11.20;99.90;;;;;;4775878;29;19925;-84
2023/01/11 05:10:18;;;;;;;3.15;1.92;;;11.20;99.90;;;;;;4803366;29;20515;-84
2023/01/11 05:12:47;;;;;;;4.30;2.78;;;11.20;99.90;;;;;;4761130;30;20051;-84
2023/01/11 05:15:14;;;;;;;3.92;2.33;;;11.30;99.90;;;;;;4784314;29;20063;-84
2023/01/11 05:17:41;;;;;;;4.75;2.45;;;11.30;99.90;;;;;;4781944;29;20056;-84
2023/01/11 05:20:09;;;;;;;4.15;1.88;;;11.30;99.90;;;;;;4773237;29;20054;-84
2023/01/11 05:22:36;;;;;;;4.38;2.97;;;11.30;99.90;;;;;;4775509;30;20066;-84
2023/01/11 05:25:04;;;;;;;5.75;2.78;;;11.30;99.90;;;;;;4777715;29;20495;-84
2023/01/11 05:27:31;;;;;;;4.88;2.90;;;11.30;99.90;;;;;;4805464;29;20050;-84
2023/01/11 05:29:58;;;;;;;4.65;2.70;;;11.30;99.90;;;;;;4798977;29;20058;-84
2023/01/11 05:32:25;;;;;;;6.32;3.00;;;11.30;99.90;;;;;;4780989;29;20051;-84
2023/01/11 05:34:55;;;;;;;4.88;3.05;;;11.30;99.90;;;;;;4799791;29;20107;-84
2023/01/11 05:37:25;;;;;;;7.03;4.85;;;11.30;99.90;;;;;;4791292;29;20101;-84
2023/01/11 05:39:55;;;;;;;7.78;4.32;;;11.30;99.90;;;;;;4791063;29;20052;-84
2023/01/11 05:42:22;;;;;;;6.63;3.28;;;11.30;99.90;;;;;;4774148;29;20138;-83
2023/01/11 05:47:37;;;;;;;6.40;3.97;;;11.30;99.90;;;;;;4790039;29;20135;-84
2023/01/11 05:50:04;;;;;;;7.32;3.85;;;11.30;99.90;;;;;;4797902;29;20592;-84
2023/01/11 05:52:31;;;;;;;6.40;3.67;;;11.30;99.90;;;;;;4772926;30;20059;-85
2023/01/11 05:54:59;;;;;;;8.15;4.07;;;11.30;99.90;;;;;;4770048;30;20055;-84
2023/01/11 05:57:26;;;;;;;7.93;4.35;;;11.30;99.90;;;;;;4790497;29;20113;-84
2023/01/11 05:59:53;;;;;;;8.82;4.80;;;11.30;99.90;;;;;;4790889;29;20051;-83
2023/01/11 06:02:20;;;;;;;8.30;4.82;;;11.30;99.90;;;;;;4785834;29;20044;-83
2023/01/11 06:04:50;;;;;;;7.05;4.13;;;11.30;99.90;;;;;;4772628;30;20536;-83
2023/01/11 06:07:17;;;;;;;8.88;4.25;;;11.30;99.90;;;;;;4783466;29;20054;-83
2023/01/11 06:09:44;;;;;;;6.55;4.00;;;11.30;99.90;;;;;;4773784;30;20059;-82
2023/01/11 06:12:11;;;;;;;6.13;3.38;;;11.20;99.90;;;;;;4786926;29;20055;-81
2023/01/11 06:14:38;;;;;;;11.55;4.32;;;11.30;99.90;;;;;;4788074;29;20059;-84
2023/01/11 06:17:05;;;;;;;8.43;4.32;;;11.20;99.90;;;;;;4788693;29;20498;-83
2023/01/11 06:19:32;;;;;;;7.03;4.28;;;11.20;99.90;;;;;;4787082;29;20108;-83
2023/01/11 06:21:59;;;;;;;9.38;3.95;;;11.20;99.90;;;;;;4789944;29;20047;-83
2023/01/11 06:24:26;;;;;;;10.57;4.60;;;11.20;99.90;;;;;;4789412;29;20100;-83
2023/01/11 06:26:54;;;;;;;8.85;3.97;;;11.20;99.90;;;;;;4785718;29;20047;-82
2023/01/11 06:29:24;;;;;;;10.68;4.10;;;11.20;99.90;;;;;;4782876;29;20063;-83
2023/01/11 06:31:51;;;;;;;8.73;3.95;;;11.10;99.90;;;;;;4791383;29;20052;-83
2023/01/11 06:34:20;;;;;;;10.88;4.25;;;11.10;99.90;;;;;;4796741;29;20051;-83
2023/01/11 06:36:47;;;;;;;10.38;4.20;;;11.10;99.90;;;;;;4792102;29;20058;-83
2023/01/11 06:39:14;;;;;;;9.60;3.67;;;11.10;99.90;;;;;;4808454;29;20055;-84
2023/01/11 06:41:41;;;;;;;8.85;2.92;;;11.00;99.90;;;;;;4784190;29;20146;-84
2023/01/11 06:44:08;;;;;;;9.02;2.75;;;11.00;99.90;;;;;;4786804;29;20048;-83
2023/01/11 06:46:36;;;;;;;6.68;1.77;;;10.90;99.90;;;;;;4815069;29;20089;-84
2023/01/11 06:49:03;;;;;;;10.25;2.33;;;10.90;99.90;;;;;;4772218;30;20052;-82
2023/01/11 06:51:30;;;;;;;10.05;2.70;;;10.90;99.90;;;;;;4816520;29;20050;-84
2023/01/11 06:53:57;;;;;;;12.20;2.42;;;10.90;99.90;;;;;;4804795;29;20072;-83
2023/01/11 06:56:24;;;;;;;14.27;2.58;;;10.80;99.90;;;;;;4810822;29;20065;-84
2023/01/11 06:58:51;;;;;;;6.90;1.65;;;10.80;99.90;;;;;;4808519;29;20153;-83
2023/01/11 07:01:19;;;;;;;12.63;1.80;;;10.80;99.90;;;;;;4815152;29;20563;-83
2023/01/11 07:03:46;;;;;;;9.15;2.25;;;10.70;99.90;;;;;;4804515;29;20043;-83
2023/01/11 07:06:13;;;;;;;7.80;1.58;;;10.70;99.90;;;;;;4805645;29;20156;-84
2023/01/11 07:08:41;;;;;;;6.53;1.88;;;10.70;99.90;;;;;;4811832;29;20112;-84
2023/01/11 07:11:08;;;;;;;6.63;1.50;;;10.70;99.90;;;;;;4793194;29;20043;-83
2023/01/11 07:13:35;;;;;;;12.27;1.75;;;10.70;99.90;;;;;;4823724;29;20104;-83
2023/01/11 07:16:03;;;;;;;7.10;1.02;;;10.70;99.90;;;;;;4802792;29;20107;-84
2023/01/11 07:18:30;;;;;;;8.13;1.63;;;10.70;99.90;;;;;;4804722;29;20057;-83
2023/01/11 07:20:57;;;;;;;12.60;1.90;;;10.70;99.90;;;;;;4804564;29;20077;-84
2023/01/11 07:23:24;;;;;;;7.78;1.13;;;10.70;99.90;;;;;;4804375;29;20413;-84
2023/01/11 07:25:51;;;;;;;8.07;1.75;;;10.60;99.90;;;;;;4789561;29;20070;-84
2023/01/11 07:28:18;;;;;;;10.15;2.08;;;10.60;99.90;;;;;;4805201;29;20043;-83
2023/01/11 07:30:46;;;;;;;6.43;1.25;;;10.60;99.90;;;;;;4804319;29;20046;-84
2023/01/11 07:33:25;;;;;;;10.55;1.50;;;10.60;99.90;;;;;;4795280;29;20054;-83
2023/01/11 07:35:57;;;;;;;10.05;1.10;;;10.50;99.90;;;;;;4819688;29;20067;-83
2023/01/11 07:38:24;;;;;;;6.72;1.08;;;10.50;99.90;;;;;;4819388;29;20065;-84
2023/01/11 07:40:51;;;;;;;10.13;1.25;;;10.50;99.90;;;;;;4798702;29;20074;-83
2023/01/11 07:43:22;;;;;;;10.48;1.42;;;10.50;99.90;;;;;;4810867;29;20054;-84
2023/01/11 07:45:54;;;;;;;8.83;1.63;;;10.50;99.90;;;;;;4790058;29;20498;-83
2023/01/11 07:48:25;;;;;;;6.53;1.77;;;10.50;99.90;;;;;;4805048;29;20055;-83
2023/01/11 07:50:53;;;;;;;7.22;1.73;;;10.50;99.90;;;;;;4807718;29;20085;-83
2023/01/11 07:53:24;;;;;;;8.23;1.48;;;10.50;99.90;;;;;;4815606;29;20047;-84
2023/01/11 07:55:53;;;;;;;10.93;1.60;;;10.50;99.90;;;;;;4818945;29;20043;-83
2023/01/11 07:58:21;;;;;;;9.38;1.83;;;10.40;99.90;;;;;;4814119;29;20055;-84
2023/01/11 08:00:51;;;;;;;9.82;2.00;;;10.40;99.90;;;;;;4819593;29;20158;-83
2023/01/11 08:03:19;;;;;;;8.32;1.60;;;10.40;99.90;;;;;;4813202;29;20051;-84
2023/01/11 08:05:51;;;;;;;10.80;1.85;;;10.40;99.90;;;;;;4793031;29;20053;-83
2023/01/11 08:08:20;;;;;;;9.30;1.63;;;10.40;99.90;;;;;;4790535;29;20154;-84
2023/01/11 08:14:37;;;;;;;4.30;1.63;;;10.40;99.90;;;;;;4803775;29;20520;-83
2023/01/11 08:16:26;;;;;;;9.98;2.10;;;10.30;99.90;;;;;;4821761;29;20059;-83
2023/01/11 08:18:53;;;;;;;9.00;1.25;;;10.30;99.90;;;;;;4832625;29;20094;-85
2023/01/11 08:21:20;;;;;;;10.35;1.40;;;10.30;99.90;;;;;;4794552;29;20602;-84
2023/01/11 08:23:47;;;;;;;7.00;1.08;;;10.30;99.90;;;;;;4814026;29;20046;-82
2023/01/11 08:26:16;;;;;;;11.35;1.05;;;10.20;99.90;;;;;;4825571;29;20054;-84
2023/01/11 08:28:46;;;;;;;6.35;0.80;;;10.20;99.90;;;;;;4808946;29;20117;-87
2023/01/11 08:31:17;;;;;;;6.47;1.02;;;10.20;99.90;;;;;;4795999;29;20585;-88
2023/01/11 08:33:45;;;;;;;9.10;1.23;;;10.20;99.90;;;;;;4807913;29;20145;-88
2023/01/11 08:36:12;;;;;;;7.82;1.20;;;10.20;99.90;;;;;;4808001;29;20059;-89
2023/01/11 08:38:40;;;;;;;6.13;1.40;;;10.20;99.90;;;;;;4823794;29;20054;-88
2023/01/11 08:41:09;;;;;;;10.73;1.83;;;10.20;99.90;;;;;;4818041;29;20153;-88
2023/01/11 08:43:37;;;;;;;7.78;1.52;;;10.10;99.90;;;;;;4810596;29;20055;-90
2023/01/11 08:46:05;;;;;;;7.30;1.50;;;10.10;99.90;;;;;;4799742;29;20043;-87
2023/01/11 08:48:32;;;;;;;11.52;1.27;;;10.10;99.90;;;;;;4831376;29;20095;-88
2023/01/11 08:50:59;;;;;;;7.13;1.52;;;10.10;99.90;;;;;;4810755;29;20055;-88
2023/01/11 08:53:26;;;;;;;10.23;1.38;;;10.10;99.90;;;;;;4808532;29;20047;-87
2023/01/11 08:55:53;;;;;;;14.02;3.08;;;10.10;99.90;;;;;;4807898;29;20065;-86
2023/01/11 08:58:21;;;;;;;11.32;1.77;;;10.10;99.90;;;;;;4812418;29;20502;-89
2023/01/11 09:00:50;;;;;;;9.65;1.67;;;10.10;99.90;;;;;;4823872;29;20053;-85
2023/01/11 09:03:19;;;;;;;9.05;1.38;;;10.10;99.90;;;;;;4811202;29;20082;-85
2023/01/11 09:05:46;;;;;;;7.07;1.40;;;10.00;99.90;;;;;;4822829;29;20074;-85
2023/01/11 09:08:22;;;;;;;7.70;1.35;;;10.00;99.90;;;;;;4813548;29;20043;-87
2023/01/11 09:10:52;;;;;;;10.77;2.10;;;10.00;99.90;;;;;;4822331;29;20055;-86
2023/01/11 09:13:19;;;;;;;10.00;1.50;;;9.90;99.90;;;;;;4807376;29;20055;-88
2023/01/11 09:15:46;;;;;;;9.50;1.30;;;9.90;99.90;;;;;;4823489;29;20489;-83
2023/01/11 09:18:14;;;;;;;7.20;1.42;;;9.90;99.90;;;;;;4830493;29;20051;-84
2023/01/11 09:20:41;;;;;;;7.50;1.05;;;9.80;99.90;;;;;;4821763;29;20074;-84
2023/01/11 09:23:08;;;;;;;14.05;2.33;;;9.80;99.90;;;;;;4804677;29;20490;-84
2023/01/11 09:25:38;;;;;;;8.32;1.38;;;9.70;99.90;;;;;;4806582;29;20058;-84
2023/01/11 09:28:05;;;;;;;13.77;1.67;;;9.70;99.90;;;;;;4806415;29;20050;-84
2023/01/11 09:30:32;;;;;;;7.85;1.23;;;9.70;99.90;;;;;;4791050;29;20551;-84
2023/01/11 09:32:59;;;;;;;6.93;1.92;;;9.70;99.90;;;;;;4805901;29;20071;-84
2023/01/11 09:35:26;;;;;;;7.72;1.20;;;9.60;99.90;;;;;;4812091;29;20571;-85
2023/01/11 09:37:55;;;;;;;11.40;1.67;;;9.60;99.90;;;;;;4811909;29;20107;-84
2023/01/11 09:40:44;;;;;;;12.02;2.40;;;9.60;99.90;;;;;;4801916;29;20078;-85
2023/01/11 09:43:14;;;;;;;8.60;1.33;;;9.50;99.90;;;;;;4805598;29;20115;-83
2023/01/11 09:45:45;;;;;;;8.75;1.70;;;9.40;99.90;;;;;;4809233;29;20054;-83
2023/01/11 09:48:32;;;;;;;9.40;1.58;;;9.40;99.90;;;;;;4823658;29;20038;-83
2023/01/11 09:51:00;;;;;;;4.78;1.05;;;9.30;99.90;;;;;;4806298;29;20494;-85
2023/01/11 09:53:37;;;;;;;10.95;1.35;;;9.30;99.90;;;;;;4783948;29;20055;-85
2023/01/11 09:56:10;;;;;;;9.40;1.58;;;9.20;99.90;;;;;;4808532;29;20258;-85
2023/01/11 09:59:19;;;;;;;4.43;1.25;;;9.20;99.90;;;;;;4834328;29;20063;-84
2023/01/11 10:02:08;;;;;;;9.05;1.27;;;9.10;99.90;;;;;;4821020;29;20276;-85
2023/01/11 10:05:20;;;;;;;14.82;1.65;;;9.10;99.90;;;;;;4808136;29;20081;-87
2023/01/11 10:08:12;;;;;;;9.13;1.30;;;9.10;99.90;;;;;;4810447;29;20498;-87
2023/01/11 10:11:42;;;;;;;8.45;1.30;;;9.10;99.90;;;;;;4827661;29;20493;-92
2023/01/11 10:14:47;;;;;;;14.43;1.90;;;9.10;99.90;;;;;;4799220;29;20051;-84
2023/01/11 10:18:17;;;;;;;10.98;2.10;;;9.10;99.90;;;;;;4812136;29;20066;-85
2023/01/11 10:21:22;;;;;;;7.40;1.00;;;9.10;99.90;;;;;;4820000;29;20137;-83
2023/01/11 10:24:01;;;;;;;9.30;1.63;;;9.20;99.90;;;;;;4820666;29;20065;-89
2023/01/11 10:26:46;;;;;;;9.77;1.10;;;9.20;99.90;;;;;;4806528;29;20562;-90
2023/01/11 10:32:38;;;;;;;8.38;1.50;;;9.20;99.90;;;;;;4790651;29;20083;-96
2023/01/11 10:39:06;;;;;;;10.05;1.20;;;9.40;99.90;;;;;;4826847;29;20049;-86
2023/01/11 10:42:01;;;;;;;7.40;1.10;;;9.60;99.90;;;;;;4830490;29;20129;-90
2023/01/11 10:45:02;;;;;;;6.93;1.25;;;9.80;99.90;;;;;;4821489;29;20081;-90
2023/01/11 10:47:47;;;;;;;5.25;1.00;;;10.00;99.90;;;;;;4798906;29;20057;-84
2023/01/11 10:50:33;;;;;;;8.73;1.27;;;10.20;99.70;;;;;;4805161;29;20069;-85
2023/01/11 10:53:20;;;;;;;8.52;1.52;;;10.30;99.40;;;;;;4820780;29;20054;-88
2023/01/11 10:56:06;;;;;;;10.43;1.52;;;10.40;99.20;;;;;;4825644;29;20112;-85
2023/01/11 10:58:48;;;;;;;4.68;0.90;;;10.40;99.10;;;;;;4826422;29;20051;-85
2023/01/11 11:01:25;;;;;;;6.30;0.90;;;10.50;99.10;;;;;;4832287;29;20062;-84
2023/01/11 11:03:56;;;;;;;7.25;1.92;;;10.50;98.90;;;;;;4815876;29;20046;-84
2023/01/11 11:07:00;;;;;;;11.93;2.65;;;10.50;98.70;;;;;;4820625;29;20055;-85
2023/01/11 11:09:50;;;;;;;11.40;1.77;;;10.50;98.60;;;;;;4788579;29;20074;-86
2023/01/11 11:12:26;;;;;;;11.07;1.73;;;10.40;98.30;;;;;;4792103;29;20058;-86
2023/01/11 11:15:01;;;;;;;15.13;2.13;;;10.40;98.10;;;;;;4820738;29;20055;-87
2023/01/11 11:17:36;;;;;;;7.18;1.85;;;10.40;98.20;;;;;;4826720;29;20062;-85
2023/01/11 11:20:28;;;;;;;13.77;1.77;;;10.40;98.00;;;;;;4809956;29;20107;-87
2023/01/11 11:22:56;;;;;;;9.35;1.77;;;10.30;98.00;;;;;;4828201;29;20062;-85
2023/01/11 11:25:31;;;;;;;11.93;2.35;;;10.30;98.20;;;;;;4811728;29;20108;-87
2023/01/11 11:28:03;;;;;;;14.25;2.42;;;10.30;98.00;;;;;;4812398;29;20060;-86
2023/01/11 11:30:33;;;;;;;10.98;1.90;;;10.30;97.90;;;;;;4824058;29;20051;-87
2023/01/11 11:33:03;;;;;;;10.38;1.55;;;10.30;97.60;;;;;;4800827;29;20055;-85
2023/01/11 11:35:42;;;;;;;8.00;1.80;;;10.30;97.60;;;;;;4808469;29;20042;-92
2023/01/11 11:38:26;;;;;;;10.55;2.15;;;10.30;97.00;;;;;;4808998;29;20055;-91
2023/01/11 11:41:03;;;;;;;12.88;1.85;;;10.20;96.80;;;;;;4796927;29;20066;-88
2023/01/11 11:43:33;;;;;;;17.63;2.50;;;10.20;96.80;;;;;;4823536;29;20047;-90
2023/01/11 11:46:18;;;;;;;14.68;1.83;;;10.20;96.60;;;;;;4808494;29;20054;-84
2023/01/11 11:49:17;;;;;;;10.23;1.30;;;10.20;96.40;;;;;;4814742;29;20047;-85
2023/01/11 11:51:46;;;;;;;20.33;2.10;;;10.30;96.20;;;;;;4806480;29;20054;-85
2023/01/11 11:54:19;;;;;;;10.63;1.92;;;10.30;96.00;;;;;;4801985;29;20059;-89
2023/01/11 11:56:47;;;;;;;11.55;1.60;;;10.30;95.90;;;;;;4814138;29;20058;-86
2023/01/11 11:59:20;;;;;;;12.27;2.45;;;10.30;95.60;;;;;;4812687;29;20498;-91
2023/01/11 12:02:03;;;;;;;12.30;2.45;;;10.30;95.40;;;;;;4814210;29;20054;-85
2023/01/11 12:04:47;;;;;;;10.85;1.65;;;10.40;95.30;;;;;;4808495;29;20422;-85
2023/01/11 12:07:29;;;;;;;8.55;1.42;;;10.50;95.20;;;;;;4828294;29;20066;-89
2023/01/11 12:09:56;;;;;;;12.10;3.10;;;10.60;95.20;;;;;;4823719;29;20047;-92
2023/01/11 12:12:24;;;;;;;11.50;1.70;;;10.60;95.10;;;;;;4825927;29;20057;-92
2023/01/11 12:15:07;;;;;;;13.57;2.03;;;10.70;95.00;;;;;;4823919;29;20060;-91
2023/01/11 12:17:35;;;;;;;11.18;1.88;;;10.70;95.00;;;;;;4793032;29;20308;-88
2023/01/11 12:20:24;;;;;;;10.50;2.45;;;10.70;94.70;;;;;;4818650;29;20058;-87
2023/01/11 12:23:29;;;;;;;11.57;2.05;;;10.80;94.70;;;;;;4819357;29;20058;-94
2023/01/11 12:26:19;;;;;;;11.35;1.70;;;10.80;94.70;;;;;;4902344;23;20035;-91
2023/01/11 12:29:15;;;;;;;13.13;3.47;;;10.80;93.90;;;;;;4813134;29;20058;-96
2023/01/11 12:32:16;;;;;;;13.73;2.72;;;10.80;93.90;;;;;;4823712;29;20054;-95
2023/01/11 12:35:26;;;;;;;12.90;1.40;;;10.80;93.70;;;;;;4821609;29;20544;-95
2023/01/11 12:38:28;;;;;;;14.90;2.38;;;10.70;93.90;;;;;;4827197;29;20046;-95
2023/01/11 12:45:13;;;;;;;12.32;1.80;;;10.70;93.80;;;;;;4829486;29;20050;-96
2023/01/11 12:48:34;;;;;;;;;;;;;;;;;;;;;
2023/01/11 13:34:50;;;;;;;11.13;1.48;;;10.60;91.80;;;;;;4977095;23;20039;31
2023/01/11 13:51:55;;;;;;;16.67;2.05;;;10.50;91.40;;;;;;4807899;29;20033;-94
2023/01/11 13:54:47;;;;;;;19.55;2.33;;;10.40;91.30;;;;;;4797351;29;20135;-94
2023/01/11 14:01:46;;;;;;;9.88;1.67;;;10.40;91.30;;;;;;4791261;29;20050;-93
2023/01/11 14:04:53;;;;;;;12.82;2.47;;;10.50;91.40;;;;;;4776841;29;20078;-93
2023/01/11 14:08:10;;;;;;;9.40;1.17;;;10.50;91.20;;;;;;4782308;29;20498;-90
2023/01/11 14:11:17;;;;;;;11.85;1.38;;;10.40;91.30;;;;;;4805778;29;20145;-87
2023/01/11 14:14:21;;;;;;;15.27;1.88;;;10.40;91.00;;;;;;4787816;29;20059;-89
2023/01/11 14:22:36;;;;;;;13.93;1.92;;;10.10;91.40;;;;;;4812970;29;20049;-89
2023/01/11 14:25:37;;;;;;;9.43;1.52;;;10.00;91.00;;;;;;4760392;29;20060;-89
2023/01/11 14:29:02;;;;;;;10.43;1.42;;;10.00;91.10;;;;;;4812035;29;20060;-90
2023/01/11 14:45:44;;;;;;;7.07;1.35;;;10.10;91.90;;;;;;4771869;29;20112;-86
2023/01/11 14:48:45;;;;;;;7.20;1.13;;;10.10;92.10;;;;;;4777067;29;20061;-85
2023/01/11 15:00:39;;;;;;;13.20;1.48;;;10.20;92.10;;;;;;4793081;29;20039;-90
2023/01/11 15:03:21;;;;;;;8.02;1.00;;;10.30;91.90;;;;;;4780320;30;20161;-90
2023/01/11 15:06:12;;;;;;;;;;;10.20;92.00;;;;;;4789573;30;20043;-88
2023/01/11 15:09:28;;;;;;;6.07;1.42;;;10.20;92.10;;;;;;4804806;29;19929;-89
2023/01/11 15:12:17;;;;;;;7.13;1.40;;;10.20;92.20;;;;;;4797430;29;20051;-87
2023/01/11 15:15:12;;;;;;;7.28;0.80;;;10.30;92.30;;;;;;4778842;29;20055;-87
2023/01/11 15:20:37;;;;;;;;;;;;;;;;;;;;;
2023/01/11 15:23:19;;;;;;;10.80;2.70;;;10.20;92.30;;;;;;4796827;29;20055;-90
2023/01/11 15:26:02;;;;;;;11.80;1.63;;;10.20;91.90;;;;;;4774679;29;20387;-90
2023/01/11 15:28:52;;;;;;;7.57;2.25;;;10.20;91.80;;;;;;4794410;29;20059;-87
2023/01/11 15:31:42;;;;;;;12.02;3.10;;;10.20;91.50;;;;;;4778639;29;20876;-90
2023/01/11 15:34:20;;;;;;;9.40;1.55;;;10.10;91.50;;;;;;4789715;29;20057;-89
2023/01/11 15:37:06;;;;;;;12.50;1.40;;;10.00;91.50;;;;;;4791425;29;20057;-89
2023/01/11 15:39:44;;;;;;;9.30;1.27;;;10.00;91.50;;;;;;4815795;29;20497;-91